Time;durP1;ratioP1;P1;durP2;ratioP2;P2;SDS_P1;SDS_P2;PMS_P1;PMS_P2;Temp;Humidity;BMP_temperature;BMP_pressure;BME280_temperature;BME280_humidity;BME280_pressure;Samples;Min_cycle;Max_cycle;Signal;HPM_P1;HPM_P2
2024/01/19 00:01:47;;;;;;;20.88;10.27;;;;;;;-3.44;69.06;97650.78;6276752;22;20526;-67
2024/01/19 00:04:12;;;;;;;19.40;9.93;;;;;;;-3.07;69.04;97703.59;6277281;22;20304;-65
2024/01/19 00:06:41;;;;;;;17.23;9.60;;;;;;;-3.03;69.05;97699.00;6277560;22;20000;-67
2024/01/19 00:09:07;;;;;;;17.77;9.52;;;;;;;-2.99;68.96;97695.28;6276772;22;20091;-67
2024/01/19 00:11:32;;;;;;;18.58;10.10;;;;;;;-3.03;68.64;97692.00;6274846;22;20065;-66
2024/01/19 00:13:58;;;;;;;20.40;9.52;;;;;;;-2.95;68.74;97701.16;6273612;22;20099;-66
2024/01/19 00:16:23;;;;;;;17.70;9.95;;;;;;;-2.93;68.48;97696.69;6274664;22;20045;-65
2024/01/19 00:18:49;;;;;;;17.95;9.50;;;;;;;-3.03;67.69;97688.53;6274660;22;19999;-66
2024/01/19 00:21:15;;;;;;;18.88;10.13;;;;;;;-3.01;67.97;97714.63;6274335;22;20399;-66
2024/01/19 00:23:40;;;;;;;17.02;9.65;;;;;;;-3.03;68.23;97694.63;6274741;22;20003;-67
2024/01/19 00:26:07;;;;;;;16.63;9.38;;;;;;;-2.92;68.56;97690.50;6273322;22;20010;-67
2024/01/19 00:28:32;;;;;;;16.77;9.48;;;;;;;-2.92;68.11;97685.25;6274996;22;20117;-67
2024/01/19 00:30:58;;;;;;;18.65;9.25;;;;;;;-2.89;68.56;97690.34;6276567;22;19999;-66
2024/01/19 00:33:23;;;;;;;18.75;10.05;;;;;;;-2.92;68.53;97680.88;6276486;22;19996;-67
2024/01/19 00:35:49;;;;;;;20.27;10.02;;;;;;;-2.89;67.96;97706.88;6276783;22;20282;-66
2024/01/19 00:38:14;;;;;;;18.90;9.70;;;;;;;-2.82;68.22;97701.28;6276368;22;20293;-66
2024/01/19 00:40:40;;;;;;;21.33;10.30;;;;;;;-2.76;68.57;97701.75;6277034;22;20153;-66
2024/01/19 00:43:05;;;;;;;17.80;10.18;;;;;;;-2.72;68.00;97694.56;6276247;22;20337;-67
2024/01/19 00:45:31;;;;;;;15.70;9.32;;;;;;;-2.70;68.25;97691.81;6276548;22;20392;-67
2024/01/19 00:47:56;;;;;;;17.95;9.82;;;;;;;-2.69;68.65;97702.22;6276554;22;20453;-66
2024/01/19 00:50:22;;;;;;;17.83;9.82;;;;;;;-2.64;68.75;97707.19;6276659;22;20038;-68
2024/01/19 00:52:48;;;;;;;19.25;9.30;;;;;;;-2.65;68.10;97708.97;6276915;22;20010;-67
2024/01/19 00:55:13;;;;;;;19.23;10.02;;;;;;;-2.60;68.10;97706.06;6276928;22;20004;-66
2024/01/19 00:57:39;;;;;;;16.92;10.88;;;;;;;-2.56;67.79;97702.31;6276487;22;20407;-66
2024/01/19 01:00:05;;;;;;;19.67;10.50;;;;;;;-2.64;68.15;97688.84;6275124;22;19999;-67
2024/01/19 01:02:31;;;;;;;20.67;10.45;;;;;;;-2.56;68.14;97710.19;6276154;22;20274;-66
2024/01/19 01:04:57;;;;;;;19.60;10.55;;;;;;;-2.56;68.23;97718.03;6276668;22;20081;-66
2024/01/19 01:07:23;;;;;;;19.80;10.93;;;;;;;-2.54;68.21;97703.06;6276437;22;20027;-66
2024/01/19 01:09:48;;;;;;;19.25;9.93;;;;;;;-2.61;67.58;97688.66;6276670;22;20004;-66
2024/01/19 01:12:14;;;;;;;19.58;10.38;;;;;;;-2.55;68.18;97709.25;6277006;22;20064;-66
2024/01/19 01:14:40;;;;;;;22.65;10.77;;;;;;;-2.50;67.82;97722.06;6275830;22;20003;-65
2024/01/19 01:17:05;;;;;;;19.17;11.05;;;;;;;-2.47;68.13;97722.72;6275237;22;20004;-67
2024/01/19 01:19:32;;;;;;;21.73;11.40;;;;;;;-2.47;67.69;97734.97;6276179;22;20009;-66
2024/01/19 01:21:58;;;;;;;20.17;9.85;;;;;;;-2.43;68.23;97733.84;6276012;22;20404;-66
2024/01/19 01:24:23;;;;;;;20.90;10.73;;;;;;;-2.74;67.97;97680.72;6276280;22;20003;-67
2024/01/19 01:26:49;;;;;;;22.60;11.18;;;;;;;-2.38;68.02;97751.94;6276441;22;20284;-66
2024/01/19 01:29:14;;;;;;;21.92;10.68;;;;;;;-2.39;68.35;97734.53;6276747;22;20003;-68
2024/01/19 01:31:40;;;;;;;20.67;10.95;;;;;;;-2.38;68.65;97729.16;6276206;22;19996;-67
2024/01/19 01:34:05;;;;;;;20.50;10.63;;;;;;;-2.31;68.27;97729.63;6275749;22;20000;-67
2024/01/19 01:36:31;;;;;;;23.10;11.70;;;;;;;-2.33;68.29;97729.72;6276226;22;20338;-67
2024/01/19 01:38:56;;;;;;;19.48;10.68;;;;;;;-2.41;68.54;97721.50;6275733;22;20549;-67
2024/01/19 01:41:22;;;;;;;20.42;10.57;;;;;;;-2.41;68.61;97739.84;6274711;22;20047;-66
2024/01/19 01:43:48;;;;;;;21.02;11.65;;;;;;;-2.42;68.84;97740.78;6276332;22;20094;-65
2024/01/19 01:46:13;;;;;;;21.30;11.05;;;;;;;-2.49;68.74;97721.97;6276442;22;20022;-67
2024/01/19 01:48:39;;;;;;;21.98;11.48;;;;;;;-2.43;68.63;97741.72;6275811;22;20086;-66
2024/01/19 01:51:06;;;;;;;21.08;11.45;;;;;;;-2.37;69.27;97748.38;6274529;22;20075;-68
2024/01/19 01:53:32;;;;;;;19.55;11.05;;;;;;;-2.42;69.54;97724.19;6275883;22;20006;-66
2024/01/19 01:55:58;;;;;;;17.98;10.90;;;;;;;-2.38;69.02;97716.06;6276173;22;20007;-67
2024/01/19 01:58:24;;;;;;;20.48;11.15;;;;;;;-2.26;69.34;97730.19;6275698;22;20003;-68
2024/01/19 02:00:50;;;;;;;18.98;10.88;;;;;;;-2.29;68.85;97717.28;6275956;22;20091;-67
2024/01/19 02:03:17;;;;;;;17.63;10.25;;;;;;;-2.51;68.88;97670.59;6276046;22;20038;-66
2024/01/19 02:05:42;;;;;;;18.55;10.55;;;;;;;-2.40;69.06;97672.56;6276095;22;20000;-68
2024/01/19 02:08:08;;;;;;;17.80;9.82;;;;;;;-2.16;69.03;97712.09;6275897;22;20012;-68
2024/01/19 02:10:33;;;;;;;18.50;10.40;;;;;;;-2.23;68.72;97693.28;6276142;22;20004;-67
2024/01/19 02:12:59;;;;;;;18.45;10.63;;;;;;;-2.07;68.62;97726.44;6274792;22;20011;-68
2024/01/19 02:15:26;;;;;;;18.85;10.27;;;;;;;-2.08;68.17;97735.22;6277342;22;20006;-67
2024/01/19 02:17:53;;;;;;;23.67;11.10;;;;;;;-2.06;68.39;97742.03;6278163;22;20030;-68
2024/01/19 02:20:19;;;;;;;19.15;9.85;;;;;;;-2.03;68.91;97746.28;6278506;22;20007;-69
2024/01/19 02:22:46;;;;;;;22.42;10.93;;;;;;;-2.03;68.25;97748.91;6277652;22;20077;-68
2024/01/19 02:25:13;;;;;;;19.30;10.05;;;;;;;-2.02;67.78;97746.19;6276951;22;20065;-68
2024/01/19 02:27:38;;;;;;;17.52;10.82;;;;;;;-2.01;67.75;97749.63;6276612;22;20011;-67
2024/01/19 02:30:10;;;;;;;21.77;11.43;;;;;;;-1.98;67.89;97759.94;6278246;22;20011;-68
2024/01/19 02:32:36;;;;;;;19.10;10.93;;;;;;;-1.97;67.65;97763.41;6278487;22;20019;-67
2024/01/19 02:35:03;;;;;;;17.02;10.20;;;;;;;-1.98;67.40;97766.97;6278335;22;20293;-67
2024/01/19 02:37:30;;;;;;;16.27;10.32;;;;;;;-1.99;67.05;97762.66;6278143;22;20008;-68
2024/01/19 02:39:56;;;;;;;17.90;10.80;;;;;;;-1.99;67.19;97778.41;6276859;22;20081;-67
2024/01/19 02:42:21;;;;;;;18.10;10.95;;;;;;;-2.00;67.37;97788.03;6278230;22;20019;-68
2024/01/19 02:44:47;;;;;;;20.27;11.45;;;;;;;-2.02;67.04;97797.78;6276771;22;20305;-67
2024/01/19 02:47:12;;;;;;;20.17;11.18;;;;;;;-2.03;66.88;97790.84;6278032;22;20012;-69
2024/01/19 02:49:38;;;;;;;16.52;10.80;;;;;;;-2.06;66.93;97785.78;6277861;22;20011;-67
2024/01/19 02:52:04;;;;;;;18.48;11.30;;;;;;;-2.30;66.88;97752.28;6277825;22;20003;-68
2024/01/19 02:54:29;;;;;;;22.13;11.68;;;;;;;-2.06;67.38;97791.88;6277505;22;20007;-68
2024/01/19 02:56:55;;;;;;;21.00;11.95;;;;;;;-2.09;66.71;97799.09;6278003;22;20000;-68
2024/01/19 02:59:21;;;;;;;22.27;11.70;;;;;;;-2.25;66.37;97779.06;6278230;22;20000;-69
2024/01/19 03:01:46;;;;;;;21.88;11.25;;;;;;;-2.21;67.09;97806.75;6277477;22;20254;-69
2024/01/19 03:04:12;;;;;;;22.48;11.38;;;;;;;-2.22;66.70;97801.63;6276424;22;20003;-68
2024/01/19 03:06:37;;;;;;;22.17;10.75;;;;;;;-2.20;66.11;97805.00;6276673;22;20004;-68
2024/01/19 03:09:03;;;;;;;18.00;10.70;;;;;;;-2.55;66.42;97759.03;6277311;22;20392;-68
2024/01/19 03:11:29;;;;;;;19.10;10.60;;;;;;;-2.23;67.09;97818.31;6277571;22;20010;-68
2024/01/19 03:13:54;;;;;;;18.92;11.02;;;;;;;-2.26;66.78;97814.06;6276510;22;20361;-68
2024/01/19 03:16:20;;;;;;;17.65;10.82;;;;;;;-2.29;66.68;97814.25;6278067;22;20050;-67
2024/01/19 03:18:45;;;;;;;20.67;11.15;;;;;;;-2.30;66.99;97812.59;6277172;22;19996;-67
2024/01/19 03:21:12;;;;;;;21.70;10.75;;;;;;;-2.32;67.03;97810.03;6277395;22;20520;-68
2024/01/19 03:23:38;;;;;;;19.50;10.50;;;;;;;-2.64;66.51;97763.03;6277572;22;20075;-68
2024/01/19 03:26:05;;;;;;;21.05;11.63;;;;;;;-2.29;66.71;97819.50;6277503;22;20027;-68
2024/01/19 03:28:31;;;;;;;19.95;10.93;;;;;;;-2.34;66.88;97824.19;6277504;22;20035;-68
2024/01/19 03:30:57;;;;;;;18.67;11.07;;;;;;;-2.41;66.44;97838.56;6277475;22;19999;-68
2024/01/19 03:33:22;;;;;;;20.00;11.35;;;;;;;-2.46;66.39;97844.13;6277478;22;19999;-69
2024/01/19 03:35:48;;;;;;;20.13;11.43;;;;;;;-2.43;66.96;97854.41;6277121;22;20274;-69
2024/01/19 03:38:14;;;;;;;17.45;10.77;;;;;;;-2.49;66.60;97849.53;6277804;22;20058;-68
2024/01/19 03:40:40;;;;;;;19.08;10.57;;;;;;;-2.39;66.88;97855.06;6277285;22;20285;-68
2024/01/19 03:43:05;;;;;;;17.33;10.50;;;;;;;-2.45;66.79;97849.25;6277226;22;20012;-67
2024/01/19 03:45:32;;;;;;;18.95;11.00;;;;;;;-2.38;66.53;97851.53;6276713;22;20372;-68
2024/01/19 03:47:57;;;;;;;21.83;11.65;;;;;;;-2.54;66.04;97849.78;6277349;22;20019;-68
2024/01/19 03:50:23;;;;;;;22.55;11.95;;;;;;;-2.82;66.33;97813.88;6276565;22;20065;-68
2024/01/19 03:52:48;;;;;;;19.48;11.05;;;;;;;-2.55;66.80;97863.84;6277278;22;20372;-68
2024/01/19 03:55:15;;;;;;;21.65;11.75;;;;;;;-2.45;66.76;97877.25;6277449;22;20065;-68
2024/01/19 03:57:41;;;;;;;23.33;11.32;;;;;;;-2.53;67.14;97868.97;6276648;22;20070;-67
2024/01/19 04:00:07;;;;;;;24.08;11.70;;;;;;;-2.55;66.91;97865.59;6277120;22;20023;-67
2024/01/19 04:02:32;;;;;;;23.25;11.70;;;;;;;-2.49;66.38;97876.56;6277013;22;20015;-68
2024/01/19 04:04:58;;;;;;;21.38;11.48;;;;;;;-2.44;66.85;97868.44;6277308;22;20003;-68
2024/01/19 04:07:23;;;;;;;26.38;12.00;;;;;;;-2.45;66.50;97875.44;6277449;22;20003;-68
2024/01/19 04:09:49;;;;;;;23.63;11.65;;;;;;;-2.44;66.36;97876.31;6276929;22;20062;-68
2024/01/19 04:12:16;;;;;;;20.90;12.23;;;;;;;-2.41;66.53;97878.75;6276939;22;20000;-68
2024/01/19 04:14:43;;;;;;;20.20;11.60;;;;;;;-2.60;66.13;97869.34;6277054;22;20004;-68
2024/01/19 04:17:10;;;;;;;24.05;11.55;;;;;;;-2.52;66.62;97891.66;6276853;22;21280;-67
2024/01/19 04:19:36;;;;;;;23.13;12.20;;;;;;;-2.43;66.82;97921.69;6276241;22;20396;-67
2024/01/19 04:22:02;;;;;;;24.15;12.18;;;;;;;-2.45;66.71;97909.50;6275890;22;20008;-63
2024/01/19 04:24:27;;;;;;;21.27;11.98;;;;;;;-2.46;66.74;97920.94;6277192;22;20404;-64
2024/01/19 04:26:53;;;;;;;20.55;12.93;;;;;;;-2.48;66.88;97914.13;6276613;22;20368;-67
2024/01/19 04:29:18;;;;;;;26.15;12.52;;;;;;;-2.47;66.52;97927.09;6275761;22;20008;-67
2024/01/19 04:31:44;;;;;;;27.45;12.40;;;;;;;-2.47;66.16;97927.09;6250392;22;20412;-70
2024/01/19 04:34:10;;;;;;;23.40;12.57;;;;;;;-2.53;66.48;97911.75;6276520;22;20007;-66
2024/01/19 04:36:37;;;;;;;27.88;13.45;;;;;;;-2.60;66.97;97926.16;6275780;22;20405;-66
2024/01/19 04:39:03;;;;;;;24.65;13.32;;;;;;;-2.61;66.61;97950.66;6276082;22;20010;-66
2024/01/19 04:41:28;;;;;;;23.20;12.70;;;;;;;-2.70;66.63;97949.41;6275230;22;20034;-66
2024/01/19 04:43:54;;;;;;;21.77;12.65;;;;;;;-2.71;66.60;97954.72;6277019;22;20404;-67
2024/01/19 04:46:20;;;;;;;25.13;13.15;;;;;;;-2.78;66.67;97949.81;6275366;22;20344;-68
2024/01/19 04:48:45;;;;;;;26.60;14.00;;;;;;;-2.87;66.24;97963.44;6276210;22;20019;-68
2024/01/19 04:51:11;;;;;;;21.40;11.77;;;;;;;-2.96;66.66;97977.91;6276690;22;20003;-67
2024/01/19 04:53:36;;;;;;;21.48;12.38;;;;;;;-3.10;67.09;97965.56;6276693;22;20074;-67
2024/01/19 04:56:05;;;;;;;21.83;12.52;;;;;;;-3.12;66.70;97975.28;6276603;22;20393;-67
2024/01/19 04:58:37;;;;;;;22.63;12.57;;;;;;;-3.15;66.71;97978.03;6276031;22;20424;-66
2024/01/19 05:01:03;;;;;;;19.50;12.20;;;;;;;-3.31;67.19;97978.03;6275326;22;20068;-68
2024/01/19 05:03:30;;;;;;;23.63;12.60;;;;;;;-3.41;66.96;97990.75;6276212;22;20000;-65
2024/01/19 05:05:56;;;;;;;29.30;12.85;;;;;;;-3.48;67.55;97992.88;6275189;22;20409;-67
2024/01/19 05:08:21;;;;;;;23.58;12.52;;;;;;;-3.56;67.50;98000.25;6275119;22;20000;-68
2024/01/19 05:10:47;;;;;;;25.35;13.25;;;;;;;-3.62;67.44;97990.97;6275108;22;20057;-67
2024/01/19 05:13:13;;;;;;;21.38;12.48;;;;;;;-3.60;67.81;98009.19;6275228;22;20007;-68
2024/01/19 05:15:38;;;;;;;21.85;11.77;;;;;;;-3.75;67.37;97995.16;6276123;22;20069;-67
2024/01/19 05:18:04;;;;;;;20.30;11.77;;;;;;;-3.71;67.71;98009.75;6275831;22;20035;-67
2024/01/19 05:20:31;;;;;;;22.95;12.65;;;;;;;-3.74;67.46;98012.53;6275186;22;20054;-68
2024/01/19 05:22:56;;;;;;;26.95;13.52;;;;;;;-3.79;67.60;98012.75;6275090;22;20008;-67
2024/01/19 05:25:22;;;;;;;23.80;12.95;;;;;;;-3.75;67.45;98031.75;6275882;22;20295;-67
2024/01/19 05:27:53;;;;;;;21.80;12.43;;;;;;;-3.80;67.71;98020.69;6275106;22;20004;-68
2024/01/19 05:30:23;;;;;;;23.95;13.25;;;;;;;-3.86;67.96;98026.22;6274819;22;20038;-67
2024/01/19 05:32:49;;;;;;;28.83;13.95;;;;;;;-3.87;68.17;98032.38;6274313;22;20019;-68
2024/01/19 05:35:14;;;;;;;22.17;12.65;;;;;;;-4.09;68.72;97996.88;6276243;22;20293;-69
2024/01/19 05:37:40;;;;;;;24.77;13.30;;;;;;;-3.79;68.08;98051.16;6276143;22;20042;-68
2024/01/19 05:40:06;;;;;;;24.88;12.23;;;;;;;-3.77;68.30;98044.91;6275781;22;20004;-68
2024/01/19 05:42:32;;;;;;;22.63;11.93;;;;;;;-3.68;68.29;98056.66;6249501;22;20428;-67
2024/01/19 05:44:57;;;;;;;24.50;13.52;;;;;;;-3.85;67.55;98017.47;6276295;22;20015;-68
2024/01/19 05:47:23;;;;;;;21.40;12.15;;;;;;;-3.88;67.33;98015.84;6275457;22;20073;-68
2024/01/19 05:49:48;;;;;;;24.08;11.85;;;;;;;-3.50;67.71;98067.13;6274425;22;20308;-68
2024/01/19 05:52:14;;;;;;;22.30;12.20;;;;;;;-3.42;67.68;98069.34;6275786;22;20004;-68
2024/01/19 05:54:40;;;;;;;19.88;11.98;;;;;;;-3.41;67.46;98063.19;6275143;22;20006;-68
2024/01/19 05:57:05;;;;;;;20.95;11.95;;;;;;;-3.32;67.45;98084.50;6275606;22;20019;-67
2024/01/19 05:59:33;;;;;;;21.80;12.02;;;;;;;-3.30;67.48;98089.63;6276560;22;20388;-68
2024/01/19 06:01:58;;;;;;;22.55;11.77;;;;;;;-3.30;67.18;98078.34;6276522;22;20076;-67
2024/01/19 06:04:24;;;;;;;28.05;12.70;;;;;;;-3.25;66.61;98086.78;6274647;22;20050;-69
2024/01/19 06:06:49;;;;;;;25.52;12.80;;;;;;;-3.21;66.59;98098.78;6249170;22;20031;-68
2024/01/19 06:09:15;;;;;;;22.77;11.65;;;;;;;-3.45;66.51;98054.66;6242491;23;20095;-68
2024/01/19 06:11:40;;;;;;;24.55;12.60;;;;;;;-3.40;66.87;98063.09;6242610;23;20011;-68
2024/01/19 06:14:06;;;;;;;22.00;11.32;;;;;;;-3.10;65.94;98108.69;6242854;23;20074;-67
2024/01/19 06:16:31;;;;;;;20.73;10.60;;;;;;;-3.07;66.50;98117.25;6217886;23;20023;-67
2024/01/19 06:18:58;;;;;;;21.85;10.93;;;;;;;-3.08;66.23;98120.78;6242945;23;20036;-67
2024/01/19 06:21:24;;;;;;;21.42;11.48;;;;;;;-3.04;66.16;98129.31;6242636;23;20094;-68
2024/01/19 06:23:49;;;;;;;21.20;11.35;;;;;;;-3.01;66.03;98136.19;6242561;23;20012;-68
2024/01/19 06:26:15;;;;;;;18.40;10.75;;;;;;;-2.96;65.97;98145.50;6242542;23;20004;-68
2024/01/19 06:28:41;;;;;;;21.35;11.25;;;;;;;-2.94;65.95;98154.09;6242805;23;20385;-68
2024/01/19 06:31:08;;;;;;;20.05;10.93;;;;;;;-2.92;66.05;98159.25;6242808;23;20015;-68
2024/01/19 06:33:34;;;;;;;23.67;10.70;;;;;;;-3.01;65.96;98136.19;6242530;23;20035;-67
2024/01/19 06:35:59;;;;;;;20.98;11.57;;;;;;;-2.87;65.88;98157.25;6217720;23;20031;-67
2024/01/19 06:38:25;;;;;;;20.23;10.70;;;;;;;-2.84;65.77;98164.94;6242798;23;20081;-67
2024/01/19 06:40:52;;;;;;;19.60;10.50;;;;;;;-2.81;66.13;98166.53;6259318;22;20054;-67
2024/01/19 06:43:17;;;;;;;20.95;10.32;;;;;;;-2.84;66.33;98157.09;6275482;22;20098;-69
2024/01/19 06:45:43;;;;;;;18.63;10.05;;;;;;;-2.75;65.46;98167.06;6275021;22;20337;-68
2024/01/19 06:48:08;;;;;;;21.73;10.77;;;;;;;-2.83;65.29;98158.78;6276224;22;20015;-68
2024/01/19 06:50:34;;;;;;;17.88;9.88;;;;;;;-2.79;65.25;98168.16;6275420;22;20424;-68
2024/01/19 06:53:00;;;;;;;17.75;10.70;;;;;;;-2.66;64.89;98189.31;6274673;22;20000;-68
2024/01/19 06:55:27;;;;;;;20.00;10.48;;;;;;;-2.67;64.96;98198.13;6275947;22;20014;-67
2024/01/19 06:57:53;;;;;;;20.73;10.80;;;;;;;-2.66;65.21;98198.94;6275404;22;20316;-68
2024/01/19 07:00:19;;;;;;;20.02;11.00;;;;;;;-2.70;65.03;98189.56;6275859;22;20002;-69
2024/01/19 07:02:44;;;;;;;18.17;10.73;;;;;;;-2.57;65.21;98195.00;6277436;22;20249;-68
2024/01/19 07:05:10;;;;;;;18.90;10.38;;;;;;;-2.50;65.02;98199.84;6277488;22;20406;-68
2024/01/19 07:07:36;;;;;;;19.70;10.52;;;;;;;-2.46;64.53;98205.78;6278171;22;20022;-68
2024/01/19 07:10:02;;;;;;;21.10;12.13;;;;;;;-2.44;65.00;98201.28;6276819;22;19995;-69
2024/01/19 07:12:29;;;;;;;20.20;11.18;;;;;;;-2.39;64.85;98206.28;6277545;22;20004;-69
2024/01/19 07:14:54;;;;;;;20.20;11.07;;;;;;;-2.37;64.16;98183.47;6276278;22;20444;-69
2024/01/19 07:17:20;;;;;;;19.52;10.98;;;;;;;-2.35;64.56;98186.84;6276361;22;20334;-69
2024/01/19 07:19:45;;;;;;;20.20;11.20;;;;;;;-2.32;63.80;98186.69;6277524;22;20035;-67
2024/01/19 07:22:11;;;;;;;18.83;10.90;;;;;;;-2.31;64.34;98189.19;6277221;22;20014;-67
2024/01/19 07:24:36;;;;;;;18.30;10.25;;;;;;;-2.27;63.92;98194.28;6276730;22;20458;-69
2024/01/19 07:27:03;;;;;;;17.00;10.23;;;;;;;-2.24;63.75;98199.38;6276233;22;20042;-70
2024/01/19 07:29:31;;;;;;;22.55;11.55;;;;;;;-2.37;63.94;98188.72;6277519;22;20037;-68
2024/01/19 07:31:57;;;;;;;20.10;10.95;;;;;;;-2.20;63.28;98212.22;6268471;22;20004;-65
2024/01/19 07:34:22;;;;;;;19.83;10.65;;;;;;;-2.18;63.52;98196.41;6276853;22;20004;-71
2024/01/19 07:36:48;;;;;;;23.90;10.48;;;;;;;-2.03;63.42;98220.94;6279704;22;20000;-70
2024/01/19 07:39:13;;;;;;;19.27;10.65;;;;;;;-1.96;63.29;98224.91;6279850;22;20004;-70
2024/01/19 07:41:40;;;;;;;18.05;10.32;;;;;;;-1.94;62.78;98233.53;6279657;22;20008;-70
2024/01/19 07:44:06;;;;;;;17.15;9.82;;;;;;;-2.17;62.94;98196.34;6279445;22;20434;-68
2024/01/19 07:46:32;;;;;;;17.52;10.32;;;;;;;-1.86;62.99;98234.91;6279579;22;20004;-71
2024/01/19 07:48:57;;;;;;;24.30;10.75;;;;;;;-1.95;62.81;98252.81;6250159;22;20007;-70
2024/01/19 07:51:24;;;;;;;21.02;10.57;;;;;;;-1.99;63.31;98247.84;6275604;22;20022;-69
2024/01/19 07:53:50;;;;;;;18.95;10.13;;;;;;;-1.94;63.25;98262.38;6277032;22;20294;-69
2024/01/19 07:56:16;;;;;;;18.55;9.75;;;;;;;-1.92;62.87;98278.91;6275196;22;20034;-70
2024/01/19 07:58:44;;;;;;;19.48;10.82;;;;;;;-1.86;62.75;98275.09;6275478;22;20316;-70
2024/01/19 08:01:10;;;;;;;19.38;9.77;;;;;;;-1.89;63.01;98272.63;6274181;22;20054;-62
2024/01/19 08:03:38;;;;;;;18.90;10.13;;;;;;;-1.91;62.58;98261.38;6275740;22;20419;-72
2024/01/19 08:06:04;;;;;;;18.60;10.40;;;;;;;-1.92;62.74;98275.44;6276562;22;20004;-61
2024/01/19 08:08:30;;;;;;;22.33;10.18;;;;;;;-1.87;62.31;98286.53;6274891;22;20030;-64
2024/01/19 08:10:55;;;;;;;16.50;10.13;;;;;;;-1.87;62.35;98294.38;6272087;22;20011;-64
2024/01/19 08:13:21;;;;;;;19.60;10.00;;;;;;;-1.86;61.69;98297.88;6276079;22;20007;-59
2024/01/19 08:15:46;;;;;;;17.50;9.65;;;;;;;-1.84;61.73;98293.38;6275573;22;20068;-61
2024/01/19 08:18:12;;;;;;;17.35;9.38;;;;;;;-1.95;60.86;98305.28;6276069;22;20392;-64
2024/01/19 08:20:37;;;;;;;16.05;8.75;;;;;;;-1.94;61.21;98303.53;6275758;22;20412;-65
2024/01/19 08:23:03;;;;;;;15.63;8.85;;;;;;;-1.82;61.03;98299.41;6275851;22;20008;-63
2024/01/19 08:25:29;;;;;;;13.63;8.23;;;;;;;-1.76;60.88;98310.41;6276081;22;20004;-63
2024/01/19 08:27:55;;;;;;;12.30;8.07;;;;;;;-1.77;60.68;98313.97;6275001;22;20007;-60
2024/01/19 08:30:21;;;;;;;14.60;8.32;;;;;;;-1.68;60.52;98323.13;6275560;22;20007;-58
2024/01/19 08:32:47;;;;;;;12.23;7.72;;;;;;;-1.61;60.60;98326.22;6275519;22;20274;-65
2024/01/19 08:35:12;;;;;;;19.58;8.52;;;;;;;-1.53;60.74;98315.31;6275947;22;20015;-64
2024/01/19 08:37:39;;;;;;;14.80;7.95;;;;;;;-1.48;59.94;98314.13;6276329;22;20008;-63
2024/01/19 08:40:09;;;;;;;15.07;7.70;;;;;;;-1.45;60.21;98318.34;6275452;22;20343;-63
2024/01/19 08:42:36;;;;;;;12.20;7.18;;;;;;;-1.48;59.39;98316.75;6275857;22;20020;-63
2024/01/19 08:45:02;;;;;;;12.15;7.50;;;;;;;-1.60;59.83;98326.16;6275310;22;20016;-64
2024/01/19 08:47:29;;;;;;;14.27;8.13;;;;;;;-1.66;60.47;98313.38;6273006;22;20423;-64
2024/01/19 08:49:55;;;;;;;15.70;8.43;;;;;;;-1.62;59.84;98307.03;6275567;22;20053;-63
2024/01/19 08:52:20;;;;;;;14.70;7.78;;;;;;;-1.47;60.31;98322.84;6273769;22;20011;-64
2024/01/19 08:54:46;;;;;;;18.63;8.50;;;;;;;-1.41;60.44;98314.66;6275556;22;20038;-63
2024/01/19 08:57:12;;;;;;;14.80;8.60;;;;;;;-1.25;59.52;98319.00;6275444;22;20134;-63
2024/01/19 08:59:37;;;;;;;16.70;8.95;;;;;;;-1.15;59.45;98320.22;6275776;22;20377;-62
2024/01/19 09:02:03;;;;;;;16.90;8.52;;;;;;;-0.98;59.16;98337.63;6274910;22;20010;-64
2024/01/19 09:04:28;;;;;;;16.67;9.00;;;;;;;-0.92;59.22;98337.25;6275699;22;20332;-65
2024/01/19 09:06:55;;;;;;;17.83;9.13;;;;;;;-0.83;58.94;98324.56;6274432;22;20083;-64
2024/01/19 09:09:24;;;;;;;16.48;8.90;;;;;;;-0.63;58.43;98336.53;6275426;22;20058;-68
2024/01/19 09:11:49;;;;;;;13.90;8.48;;;;;;;-0.48;57.51;98333.00;6248326;22;20083;-64
2024/01/19 09:14:15;;;;;;;14.50;8.77;;;;;;;-0.28;57.54;98349.34;6275309;22;20401;-65
2024/01/19 09:16:43;;;;;;;12.43;7.82;;;;;;;-0.18;56.93;98374.19;6273147;22;20008;-63
2024/01/19 09:19:09;;;;;;;14.82;8.93;;;;;;;-0.33;56.75;98317.22;6270674;22;20004;-65
2024/01/19 09:21:34;;;;;;;18.30;8.68;;;;;;;-0.12;56.24;98357.19;6273462;22;20000;-63
2024/01/19 09:24:00;;;;;;;15.85;8.77;;;;;;;-0.04;56.27;98369.84;6275320;22;20403;-66
2024/01/19 09:26:25;;;;;;;20.60;8.93;;;;;;;0.01;56.69;98370.44;6248187;22;20003;-66
2024/01/19 09:28:51;;;;;;;17.15;9.23;;;;;;;0.01;56.18;98367.81;6248669;22;20007;-64
2024/01/19 09:31:16;;;;;;;14.75;9.27;;;;;;;0.02;56.78;98374.78;6248016;22;20010;-65
2024/01/19 09:33:42;;;;;;;15.35;9.55;;;;;;;-0.05;56.58;98386.59;6273844;22;20003;-65
2024/01/19 09:36:08;;;;;;;17.83;9.50;;;;;;;-0.12;57.19;98382.63;6274625;22;20527;-65
2024/01/19 09:38:35;;;;;;;14.82;9.07;;;;;;;-0.15;56.95;98395.03;6273727;22;20000;-67
2024/01/19 09:41:32;;;;;;;15.60;9.00;;;;;;;-0.11;56.91;98389.59;6274831;22;20414;-66
2024/01/19 09:44:00;;;;;;;18.73;9.10;;;;;;;-0.61;56.50;98350.41;6273843;22;20274;-67
2024/01/19 09:46:28;;;;;;;21.70;9.93;;;;;;;-0.44;57.33;98394.97;6273356;22;20091;-65
2024/01/19 09:49:21;;;;;;;19.27;10.45;;;;;;;-0.38;57.88;98395.56;6274170;22;20015;-70
2024/01/19 09:52:02;;;;;;;21.02;9.80;;;;;;;-0.38;57.70;98396.38;6274018;22;20012;-66
2024/01/19 09:54:34;;;;;;;20.30;10.63;;;;;;;-0.40;57.85;98402.69;6274968;22;20091;-66
2024/01/19 09:57:01;;;;;;;18.73;10.60;;;;;;;-0.45;57.45;98419.59;6273635;22;20023;-65
2024/01/19 09:59:31;;;;;;;19.23;9.80;;;;;;;-0.60;57.50;98379.25;6274431;22;20014;-65
2024/01/19 10:01:58;;;;;;;20.45;10.75;;;;;;;-0.32;57.58;98424.13;6272617;22;20015;-64
2024/01/19 10:04:25;;;;;;;22.63;10.80;;;;;;;-0.33;56.90;98423.28;6273462;22;20076;-65
2024/01/19 10:06:51;;;;;;;18.15;10.23;;;;;;;-0.28;56.81;98412.47;6274009;22;20082;-64
2024/01/19 10:09:23;;;;;;;20.90;10.85;;;;;;;-0.18;56.88;98416.28;6274002;22;20358;-64
2024/01/19 10:11:55;;;;;;;20.77;10.38;;;;;;;-0.11;56.63;98422.03;6275426;22;20083;-63
2024/01/19 10:14:23;;;;;;;17.50;9.07;;;;;;;-0.15;56.51;98416.09;6274306;22;20408;-60
2024/01/19 10:16:49;;;;;;;18.13;9.82;;;;;;;-0.12;56.11;98436.13;6272882;22;20003;-63
2024/01/19 10:19:16;;;;;;;17.92;9.73;;;;;;;-0.22;56.36;98443.69;6274804;22;20082;-63
2024/01/19 10:21:43;;;;;;;16.95;9.60;;;;;;;-0.32;56.66;98450.41;6274272;22;20016;-65
2024/01/19 10:24:19;;;;;;;18.90;10.15;;;;;;;-0.45;56.64;98452.91;6274542;22;20004;-64
2024/01/19 10:26:55;;;;;;;21.80;10.15;;;;;;;-0.32;57.21;98450.41;6275453;22;20003;-64
2024/01/19 10:29:22;;;;;;;19.00;10.35;;;;;;;-0.44;57.00;98460.72;6273830;22;20004;-63
2024/01/19 10:31:50;;;;;;;20.40;9.77;;;;;;;-0.47;56.59;98465.31;6275101;22;20085;-62
2024/01/19 10:34:17;;;;;;;13.88;8.60;;;;;;;-0.54;56.64;98464.78;6273520;22;20094;-63
2024/01/19 10:36:44;;;;;;;16.85;8.88;;;;;;;-0.94;57.00;98412.72;6274747;22;20019;-65
2024/01/19 10:39:24;;;;;;;18.60;9.60;;;;;;;-0.55;57.21;98471.00;6275832;22;20026;-65
2024/01/19 10:41:51;;;;;;;19.30;9.60;;;;;;;-0.64;57.53;98467.09;6275214;22;20058;-63
2024/01/19 10:44:23;;;;;;;15.80;9.50;;;;;;;-0.64;57.20;98476.78;6275610;22;20397;-63
2024/01/19 10:46:50;;;;;;;14.38;8.75;;;;;;;-0.75;57.13;98474.75;6248200;22;20011;-63
2024/01/19 10:49:16;;;;;;;18.42;8.98;;;;;;;-0.73;57.47;98488.66;6275069;22;20022;-63
2024/01/19 10:51:46;;;;;;;17.50;9.00;;;;;;;-0.79;56.83;98505.59;6276332;22;20003;-66
2024/01/19 10:54:23;;;;;;;15.95;8.63;;;;;;;-0.78;57.03;98491.53;6276349;22;20003;-63
2024/01/19 10:57:09;;;;;;;15.68;8.85;;;;;;;-0.60;57.34;98500.19;6275530;22;20020;-63
2024/01/19 10:59:35;;;;;;;18.15;9.18;;;;;;;-0.76;57.26;98494.91;6276726;22;20061;-64
2024/01/19 11:02:03;;;;;;;21.35;10.02;;;;;;;-0.74;56.99;98503.56;6276165;22;20007;-64
2024/01/19 11:04:29;;;;;;;23.40;10.05;;;;;;;-0.88;56.98;98480.66;6275326;22;20283;-64
2024/01/19 11:06:55;;;;;;;18.58;9.20;;;;;;;-0.76;56.47;98515.94;6276837;22;20000;-63
2024/01/19 11:09:21;;;;;;;24.50;10.68;;;;;;;-1.20;56.86;98450.94;6275509;22;20053;-62
2024/01/19 11:11:58;;;;;;;22.02;9.02;;;;;;;-0.81;57.12;98512.72;6276400;22;20008;-64
2024/01/19 11:14:25;;;;;;;19.02;9.07;;;;;;;-0.85;56.63;98526.97;6277333;22;20004;-64
2024/01/19 11:16:55;;;;;;;22.67;10.25;;;;;;;-0.92;56.67;98526.44;6276366;22;20000;-63